createdAt,value
2022-09-27T00:00:33.839Z,2.03
2022-09-27T00:03:00.644Z,2.10
2022-09-27T00:05:27.372Z,2.05
2022-09-27T00:07:54.359Z,2.20
2022-09-27T00:10:21.042Z,2.10
2022-09-27T00:12:47.921Z,2.25
2022-09-27T00:15:15.298Z,2.13
2022-09-27T00:17:42.372Z,2.20
2022-09-27T00:20:10.094Z,2.58
2022-09-27T00:22:36.900Z,2.55
2022-09-27T00:25:04.217Z,2.20
2022-09-27T00:27:31.241Z,1.90
2022-09-27T00:29:57.968Z,2.28
2022-09-27T00:32:24.664Z,2.47
2022-09-27T00:34:51.322Z,2.58
2022-09-27T00:37:18.039Z,2.53
2022-09-27T00:39:44.703Z,2.42
2022-09-27T00:42:12.581Z,2.05
2022-09-27T00:44:39.239Z,2.00
2022-09-27T00:47:27.349Z,2.20
2022-09-27T00:50:07.507Z,2.22
2022-09-27T00:52:50.949Z,1.95
2022-09-27T00:55:23.525Z,2.45
2022-09-27T00:57:50.758Z,2.20
2022-09-27T01:00:17.969Z,2.33
2022-09-27T01:02:49.887Z,2.20
2022-09-27T01:05:19.238Z,2.17
2022-09-27T01:07:45.941Z,2.42
2022-09-27T01:10:14.034Z,2.63
2022-09-27T01:12:43.441Z,2.33
2022-09-27T01:15:33.382Z,2.30
2022-09-27T01:18:34.138Z,2.20
2022-09-27T01:21:18.086Z,2.45
2022-09-27T01:24:15.038Z,2.40
2022-09-27T01:27:07.847Z,2.20
2022-09-27T01:29:53.431Z,2.10
2022-09-27T01:32:30.799Z,2.20
2022-09-27T01:35:06.891Z,2.20
2022-09-27T01:38:09.516Z,2.20
2022-09-27T01:40:47.815Z,2.08
2022-09-27T01:43:33.051Z,2.10
2022-09-27T01:46:08.704Z,2.30
2022-09-27T01:48:55.518Z,2.38
2022-09-27T01:51:30.344Z,1.80
2022-09-27T01:54:01.982Z,2.03
2022-09-27T01:56:57.334Z,1.88
2022-09-27T01:59:53.340Z,1.92
2022-09-27T02:02:24.262Z,2.10
2022-09-27T02:04:55.555Z,1.98
2022-09-27T02:07:32.002Z,2.08
2022-09-27T02:10:13.446Z,2.00
2022-09-27T02:12:52.340Z,1.70
2022-09-27T02:15:19.368Z,1.88
2022-09-27T02:17:52.210Z,1.80
2022-09-27T02:20:27.119Z,2.08
2022-09-27T02:23:14.808Z,1.92
2022-09-27T02:25:57.407Z,1.95
2022-09-27T02:28:51.462Z,1.90
2022-09-27T02:31:18.314Z,2.00
2022-09-27T02:33:47.265Z,1.80
2022-09-27T02:36:14.214Z,1.70
2022-09-27T02:38:42.436Z,1.85
2022-09-27T02:41:14.463Z,1.90
2022-09-27T02:43:42.126Z,1.60
2022-09-27T02:46:30.451Z,2.05
2022-09-27T02:49:04.611Z,1.70
2022-09-27T02:52:04.685Z,1.92
2022-09-27T02:54:49.501Z,2.20
2022-09-27T02:57:40.890Z,1.80
2022-09-27T03:00:10.789Z,1.70
2022-09-27T03:02:46.085Z,1.90
2022-09-27T03:05:26.367Z,1.95
2022-09-27T03:07:53.111Z,1.80
2022-09-27T03:10:24.507Z,1.83
2022-09-27T03:12:51.656Z,1.70
2022-09-27T03:15:18.359Z,1.90
2022-09-27T03:17:45.086Z,1.85
2022-09-27T03:20:11.943Z,2.17
2022-09-27T03:22:38.637Z,1.95
2022-09-27T03:25:06.755Z,2.20
2022-09-27T03:27:33.550Z,1.90
2022-09-27T03:30:00.334Z,2.08
2022-09-27T03:32:27.401Z,1.90
2022-09-27T03:34:54.233Z,2.20
2022-09-27T03:37:21.739Z,2.20
2022-09-27T03:39:48.448Z,2.20
2022-09-27T03:42:15.118Z,2.22
2022-09-27T03:44:41.892Z,1.98
2022-09-27T03:47:08.570Z,1.95
2022-09-27T03:49:35.219Z,2.65
2022-09-27T03:52:02.143Z,2.70
2022-09-27T03:54:28.789Z,2.70
2022-09-27T03:56:55.466Z,2.25
2022-09-27T03:59:22.162Z,2.22
2022-09-27T04:01:48.866Z,2.53
2022-09-27T04:04:15.624Z,2.42
2022-09-27T04:06:42.322Z,2.50
2022-09-27T04:09:09.040Z,2.25
2022-09-27T04:11:35.722Z,2.72
2022-09-27T04:14:02.469Z,2.42
2022-09-27T04:16:29.154Z,2.55
2022-09-27T04:18:56.156Z,2.67
2022-09-27T04:21:22.794Z,2.78
2022-09-27T04:23:49.526Z,2.55
2022-09-27T04:26:16.222Z,2.85
2022-09-27T04:28:42.914Z,2.70
2022-09-27T04:31:09.653Z,2.58
2022-09-27T04:33:36.404Z,3.00
2022-09-27T04:36:03.329Z,2.53
2022-09-27T04:38:29.995Z,2.85
2022-09-27T04:40:56.939Z,3.33
2022-09-27T04:43:23.766Z,2.50
2022-09-27T04:45:50.456Z,3.00
2022-09-27T04:48:17.123Z,2.90
2022-09-27T04:50:43.832Z,2.80
2022-09-27T04:53:14.788Z,2.63
2022-09-27T04:55:46.410Z,2.83
2022-09-27T04:58:13.235Z,2.90
2022-09-27T05:00:40.370Z,2.90
2022-09-27T05:03:07.052Z,2.92
2022-09-27T05:05:33.665Z,2.85
2022-09-27T05:08:00.351Z,3.20
2022-09-27T05:10:27.058Z,2.97
2022-09-27T05:12:53.683Z,2.78
2022-09-27T05:15:20.340Z,3.20
2022-09-27T05:17:47.012Z,3.03
2022-09-27T05:20:13.656Z,2.88
2022-09-27T05:22:40.714Z,2.90
2022-09-27T05:25:07.785Z,2.55
2022-09-27T05:27:34.459Z,3.40
2022-09-27T05:30:01.156Z,2.80
2022-09-27T05:32:28.927Z,3.15
2022-09-27T05:34:55.603Z,3.33
2022-09-27T05:37:22.419Z,3.00
2022-09-27T05:39:49.175Z,3.50
2022-09-27T05:42:15.988Z,3.72
2022-09-27T05:44:42.667Z,3.30
2022-09-27T05:47:09.409Z,3.08
2022-09-27T05:49:36.173Z,3.30
2022-09-27T05:52:02.987Z,3.80
2022-09-27T05:54:29.709Z,2.78
2022-09-27T05:56:57.029Z,3.10
2022-09-27T05:59:24.254Z,3.30
2022-09-27T06:01:51.050Z,2.95
2022-09-27T06:04:18.832Z,2.78
2022-09-27T06:06:45.831Z,2.80
2022-09-27T06:09:14.444Z,3.90
2022-09-27T06:11:44.571Z,3.80
2022-09-27T06:14:13.377Z,4.43
2022-09-27T06:16:40.515Z,4.13
2022-09-27T06:19:07.286Z,3.53
2022-09-27T06:21:33.970Z,3.72
2022-09-27T06:24:01.116Z,3.63
2022-09-27T06:26:27.825Z,3.85
2022-09-27T06:28:54.836Z,4.30
2022-09-27T06:31:24.631Z,4.60
2022-09-27T06:33:54.125Z,3.60
2022-09-27T06:36:21.200Z,4.20
2022-09-27T06:38:48.060Z,4.22
2022-09-27T06:41:14.803Z,4.20
2022-09-27T06:43:41.533Z,4.00
2022-09-27T06:46:08.394Z,4.32
2022-09-27T06:48:35.327Z,3.95
2022-09-27T06:51:02.018Z,4.22
2022-09-27T06:53:29.083Z,4.07
2022-09-27T06:56:03.094Z,6.78
2022-09-27T06:58:30.085Z,4.55
2022-09-27T07:00:56.944Z,4.32
2022-09-27T07:03:24.212Z,4.93
2022-09-27T07:05:59.148Z,5.10
2022-09-27T07:08:26.726Z,4.80
2022-09-27T07:10:53.430Z,6.22
2022-09-27T07:13:20.079Z,5.60
2022-09-27T07:15:46.783Z,5.50
2022-09-27T07:18:13.475Z,5.88
2022-09-27T07:20:40.345Z,5.60
2022-09-27T07:23:08.818Z,5.97
2022-09-27T07:25:35.544Z,5.85
2022-09-27T07:28:04.906Z,5.65
2022-09-27T07:30:32.906Z,5.85
2022-09-27T07:33:01.548Z,5.75
2022-09-27T07:35:29.112Z,6.40
2022-09-27T07:37:56.464Z,5.50
2022-09-27T07:40:23.757Z,7.55
2022-09-27T07:42:58.027Z,5.57
2022-09-27T07:45:25.937Z,6.00
2022-09-27T07:47:52.845Z,5.28
2022-09-27T07:50:20.437Z,5.85
2022-09-27T07:52:49.627Z,6.32
2022-09-27T07:55:16.837Z,5.88
2022-09-27T07:57:43.651Z,5.50
2022-09-27T08:00:13.798Z,4.95
2022-09-27T08:02:41.377Z,5.40
2022-09-27T08:05:09.059Z,5.07
2022-09-27T08:07:37.356Z,5.93
2022-09-27T08:10:04.367Z,4.45
2022-09-27T08:12:31.080Z,6.03
2022-09-27T08:14:57.709Z,5.78
2022-09-27T08:17:24.433Z,4.80
2022-09-27T08:19:51.086Z,4.40
2022-09-27T08:22:17.724Z,4.72
2022-09-27T08:24:44.354Z,4.45
2022-09-27T08:27:12.185Z,4.95
2022-09-27T08:29:39.790Z,4.20
2022-09-27T08:32:06.471Z,4.85
2022-09-27T08:34:33.266Z,4.55
2022-09-27T08:37:00.064Z,5.18
2022-09-27T08:39:26.856Z,4.80
2022-09-27T08:41:57.005Z,4.63
2022-09-27T08:44:42.040Z,4.07
2022-09-27T08:47:15.601Z,5.03
2022-09-27T08:49:51.351Z,4.13
2022-09-27T08:54:48.388Z,4.28
2022-09-27T08:57:16.073Z,4.60
2022-09-27T09:00:07.264Z,4.40
2022-09-27T09:02:35.664Z,3.58
2022-09-27T09:05:08.713Z,4.00
2022-09-27T09:08:15.730Z,3.70
2022-09-27T09:11:03.921Z,3.97
2022-09-27T09:14:13.350Z,4.50
2022-09-27T09:17:03.443Z,3.85
2022-09-27T09:19:57.343Z,4.07
2022-09-27T09:22:30.239Z,3.80
2022-09-27T09:25:30.349Z,3.42
2022-09-27T09:28:13.960Z,3.60
2022-09-27T09:30:59.231Z,3.17
2022-09-27T09:33:38.224Z,3.58
2022-09-27T09:36:19.928Z,4.18
2022-09-27T09:39:17.910Z,3.80
2022-09-27T09:42:06.519Z,3.33
2022-09-27T09:44:51.204Z,3.05
2022-09-27T09:47:27.122Z,3.70
2022-09-27T09:50:01.321Z,3.90
2022-09-27T09:52:39.669Z,3.53
2022-09-27T09:55:36.297Z,2.92
2022-09-27T10:00:33.759Z,3.33
2022-09-27T10:03:01.005Z,3.35
2022-09-27T10:05:28.648Z,3.60
2022-09-27T10:07:59.999Z,3.55
2022-09-27T10:10:27.852Z,3.58
2022-09-27T10:12:55.734Z,3.50
2022-09-27T10:15:25.822Z,3.00
2022-09-27T10:17:56.739Z,2.80
2022-09-27T10:20:43.920Z,3.00
2022-09-27T10:23:21.754Z,3.33
2022-09-27T10:25:53.361Z,3.35
2022-09-27T10:28:40.792Z,3.95
2022-09-27T10:31:09.746Z,3.20
2022-09-27T10:34:00.132Z,4.70
2022-09-27T10:36:29.676Z,4.13
2022-09-27T10:38:59.611Z,3.47
2022-09-27T10:41:37.991Z,3.50
2022-09-27T10:44:17.314Z,3.40
2022-09-27T10:46:45.982Z,3.85
2022-09-27T10:49:24.538Z,2.97
2022-09-27T10:51:54.905Z,3.55
2022-09-27T10:54:23.461Z,3.28
2022-09-27T10:57:06.734Z,3.33
2022-09-27T10:59:36.665Z,2.97
2022-09-27T11:02:04.955Z,2.85
2022-09-27T11:04:37.707Z,2.38
2022-09-27T11:07:22.753Z,2.53
2022-09-27T11:09:58.068Z,3.00
2022-09-27T11:12:24.767Z,3.17
2022-09-27T11:15:15.397Z,3.25
2022-09-27T11:17:56.103Z,3.08
2022-09-27T11:20:32.192Z,3.20
2022-09-27T11:23:16.338Z,3.10
2022-09-27T11:25:46.050Z,3.25
2022-09-27T11:28:23.574Z,5.30
2022-09-27T11:31:13.646Z,4.55
2022-09-27T11:34:04.681Z,5.03
2022-09-27T11:36:53.673Z,8.18
2022-09-27T11:39:24.208Z,7.50
2022-09-27T11:42:32.299Z,5.53
2022-09-27T11:45:56.384Z,6.28
2022-09-27T11:48:30.539Z,6.30
2022-09-27T11:51:11.949Z,7.20
2022-09-27T11:53:57.166Z,5.80
2022-09-27T11:56:47.581Z,4.20
2022-09-27T11:59:43.203Z,3.05
2022-09-27T12:02:18.757Z,2.67
2022-09-27T12:05:00.047Z,1.98
2022-09-27T12:07:47.181Z,2.08
2022-09-27T12:10:17.320Z,1.95
2022-09-27T12:12:50.403Z,2.20
2022-09-27T12:15:21.180Z,2.13
2022-09-27T12:17:52.247Z,2.83
2022-09-27T12:20:34.661Z,2.10
2022-09-27T12:23:06.512Z,2.63
2022-09-27T12:25:37.728Z,3.17
2022-09-27T12:28:34.766Z,3.42
2022-09-27T12:31:40.306Z,4.22
2022-09-27T12:34:19.922Z,3.90
2022-09-27T12:37:19.358Z,3.97
2022-09-27T12:40:07.641Z,4.60
2022-09-27T12:42:44.516Z,4.45
2022-09-27T12:45:14.900Z,4.32
2022-09-27T12:48:12.942Z,5.10
2022-09-27T12:50:57.938Z,3.85
2022-09-27T12:53:35.101Z,4.88
2022-09-27T12:56:39.165Z,4.93
2022-09-27T12:59:11.005Z,4.68
2022-09-27T13:02:15.444Z,7.20
2022-09-27T13:05:03.026Z,5.57
2022-09-27T13:07:43.903Z,6.00
2022-09-27T13:10:34.317Z,3.78
2022-09-27T13:13:02.549Z,4.20
2022-09-27T13:15:32.201Z,3.22
2022-09-27T13:18:00.743Z,2.42
2022-09-27T13:20:36.400Z,3.75
2022-09-27T13:23:25.367Z,2.40
2022-09-27T13:26:07.443Z,2.05
2022-09-27T13:28:55.499Z,1.70
2022-09-27T13:31:53.283Z,2.25
2022-09-27T13:34:40.775Z,2.53
2022-09-27T13:37:29.032Z,2.97
2022-09-27T13:40:18.227Z,2.63
2022-09-27T13:43:09.166Z,3.10
2022-09-27T13:45:38.530Z,2.97
2022-09-27T13:48:14.972Z,3.70
2022-09-27T13:51:24.979Z,4.00
2022-09-27T13:54:07.957Z,3.97
2022-09-27T13:56:36.830Z,4.90
2022-09-27T13:59:09.143Z,3.25
2022-09-27T14:01:59.741Z,2.95
2022-09-27T14:04:30.715Z,2.50
2022-09-27T14:07:00.589Z,2.97
2022-09-27T14:09:31.467Z,2.40
2022-09-27T14:12:09.013Z,2.47
2022-09-27T14:14:36.370Z,2.75
2022-09-27T14:17:10.035Z,4.60
2022-09-27T14:19:41.206Z,3.67
2022-09-27T14:22:16.326Z,3.10
2022-09-27T14:24:44.591Z,2.55
2022-09-27T14:27:16.064Z,2.67
2022-09-27T14:30:16.772Z,2.80
2022-09-27T14:32:48.791Z,2.50
2022-09-27T14:35:22.179Z,2.53
2022-09-27T14:37:52.818Z,2.53
2022-09-27T14:40:22.101Z,1.80
2022-09-27T14:42:57.906Z,1.92
2022-09-27T14:47:58.371Z,2.08
2022-09-27T14:50:27.660Z,1.83
2022-09-27T14:52:54.361Z,2.28
2022-09-27T14:55:23.428Z,2.00
2022-09-27T14:57:56.908Z,2.25
2022-09-27T15:00:34.529Z,2.60
2022-09-27T15:03:07.270Z,2.35
2022-09-27T15:05:35.791Z,2.58
2022-09-27T15:08:04.974Z,2.47
2022-09-27T15:10:34.897Z,2.30
2022-09-27T15:13:03.489Z,3.03
2022-09-27T15:15:35.869Z,2.90
2022-09-27T15:18:04.082Z,2.65
2022-09-27T15:20:35.251Z,3.10
2022-09-27T15:23:04.341Z,3.10
2022-09-27T15:25:32.947Z,3.28
2022-09-27T15:28:01.988Z,3.45
2022-09-27T15:30:35.201Z,3.72
2022-09-27T15:33:02.842Z,3.80
2022-09-27T15:35:32.844Z,3.53
2022-09-27T15:38:31.379Z,3.55
2022-09-27T15:41:01.466Z,3.60
2022-09-27T15:43:47.902Z,4.82
2022-09-27T15:46:38.319Z,4.25
2022-09-27T15:49:20.251Z,4.13
2022-09-27T15:51:52.292Z,4.88
2022-09-27T15:54:23.701Z,5.55
2022-09-27T15:56:55.213Z,4.75
2022-09-27T15:59:23.323Z,5.75
2022-09-27T16:01:50.326Z,5.30
2022-09-27T16:04:16.951Z,4.85
2022-09-27T16:06:43.842Z,3.55
2022-09-27T16:09:20.810Z,2.53
2022-09-27T16:11:48.736Z,2.80
2022-09-27T16:14:16.547Z,2.35
2022-09-27T16:16:45.123Z,2.22
2022-09-27T16:19:12.199Z,2.10
2022-09-27T16:21:38.934Z,1.85
2022-09-27T16:24:06.429Z,2.42
2022-09-27T16:26:34.161Z,2.03
2022-09-27T16:29:00.849Z,1.70
2022-09-27T16:31:27.598Z,1.55
2022-09-27T16:33:54.352Z,1.55
2022-09-27T16:36:21.029Z,1.75
2022-09-27T16:38:51.516Z,1.70
2022-09-27T16:41:19.808Z,2.05
2022-09-27T16:43:47.380Z,2.40
2022-09-27T16:46:15.530Z,2.40
2022-09-27T16:48:42.753Z,3.00
2022-09-27T16:51:21.288Z,2.70
2022-09-27T16:53:48.221Z,2.45
2022-09-27T16:56:14.888Z,2.00
2022-09-27T16:58:41.530Z,2.20
2022-09-27T17:01:08.485Z,2.60
2022-09-27T17:03:35.188Z,1.77
2022-09-27T17:06:02.040Z,2.22
2022-09-27T17:08:28.865Z,2.38
2022-09-27T17:10:55.804Z,2.35
2022-09-27T17:13:23.365Z,2.30
2022-09-27T17:15:50.076Z,2.20
2022-09-27T17:18:16.855Z,2.40
2022-09-27T17:20:43.509Z,2.10
2022-09-27T17:23:10.212Z,2.40
2022-09-27T17:25:37.025Z,2.33
2022-09-27T17:28:03.678Z,2.50
2022-09-27T17:30:30.372Z,2.33
2022-09-27T17:32:57.149Z,2.30
2022-09-27T17:35:24.191Z,2.60
2022-09-27T17:37:51.104Z,2.88
2022-09-27T17:40:17.903Z,3.00
2022-09-27T17:42:44.717Z,3.60
2022-09-27T17:45:11.581Z,3.70
2022-09-27T17:47:38.358Z,3.67
2022-09-27T17:50:05.405Z,3.45
2022-09-27T17:52:32.041Z,3.78
2022-09-27T17:54:58.644Z,3.95
2022-09-27T17:57:25.508Z,3.60
2022-09-27T17:59:52.177Z,3.63
2022-09-27T18:02:19.134Z,3.67
2022-09-27T18:04:46.027Z,3.25
2022-09-27T18:07:12.674Z,3.97
2022-09-27T18:09:39.354Z,5.07
2022-09-27T18:12:08.980Z,4.47
2022-09-27T18:14:35.813Z,4.25
2022-09-27T18:17:02.454Z,3.80
2022-09-27T18:19:29.139Z,4.65
2022-09-27T18:21:55.844Z,5.00
2022-09-27T18:24:22.492Z,4.72
2022-09-27T18:26:49.127Z,5.50
2022-09-27T18:29:18.382Z,5.80
2022-09-27T18:31:48.772Z,6.28
2022-09-27T18:34:19.364Z,4.75
2022-09-27T18:36:46.770Z,6.05
2022-09-27T18:39:15.899Z,5.13
2022-09-27T18:41:42.751Z,6.07
2022-09-27T18:44:14.273Z,6.28
2022-09-27T18:46:41.398Z,6.70
2022-09-27T18:49:12.787Z,6.88
2022-09-27T18:51:40.885Z,7.97
2022-09-27T18:54:12.620Z,7.40
2022-09-27T18:56:39.615Z,7.55
2022-09-27T18:59:07.801Z,6.75
2022-09-27T19:01:35.999Z,6.10
2022-09-27T19:04:02.857Z,6.43
2022-09-27T19:06:29.499Z,4.88
2022-09-27T19:08:57.443Z,5.05
2022-09-27T19:11:25.487Z,5.15
2022-09-27T19:13:54.506Z,5.25
2022-09-27T19:16:22.727Z,5.78
2022-09-27T19:18:50.078Z,6.22
2022-09-27T19:21:24.456Z,7.03
2022-09-27T19:23:51.748Z,6.07
2022-09-27T19:26:24.526Z,7.20
2022-09-27T19:28:51.283Z,6.85
2022-09-27T19:31:23.545Z,5.50
2022-09-27T19:33:50.910Z,5.05
2022-09-27T19:36:19.243Z,5.20
2022-09-27T19:38:46.904Z,5.07
2022-09-27T19:41:15.744Z,4.82
2022-09-27T19:43:43.229Z,4.22
2022-09-27T19:46:17.363Z,3.63
2022-09-27T19:48:45.483Z,4.15
2022-09-27T19:51:23.883Z,3.42
2022-09-27T19:53:51.539Z,4.15
2022-09-27T19:56:19.332Z,4.00
2022-09-27T19:58:46.287Z,3.22
2022-09-27T20:01:14.183Z,4.18
2022-09-27T20:03:43.076Z,3.53
2022-09-27T20:06:15.029Z,3.45
2022-09-27T20:08:42.726Z,3.47
2022-09-27T20:11:15.276Z,3.65
2022-09-27T20:13:42.659Z,3.17
2022-09-27T20:16:23.546Z,3.10
2022-09-27T20:18:55.277Z,2.70
2022-09-27T20:21:24.636Z,3.50
2022-09-27T20:23:53.356Z,3.42
2022-09-27T20:26:21.626Z,3.10
2022-09-27T20:28:50.755Z,3.67
2022-09-27T20:31:37.937Z,3.65
2022-09-27T20:34:07.181Z,3.30
2022-09-27T20:36:36.159Z,3.30
2022-09-27T20:39:05.410Z,3.03
2022-09-27T20:41:35.260Z,3.35
2022-09-27T20:44:05.226Z,3.47
2022-09-27T20:46:33.130Z,5.25
2022-09-27T20:49:02.378Z,4.72
2022-09-27T20:51:30.696Z,5.25
2022-09-27T20:53:57.375Z,5.40
2022-09-27T20:56:27.975Z,5.40
2022-09-27T20:58:56.605Z,5.82
2022-09-27T21:01:24.713Z,5.57
2022-09-27T21:04:00.213Z,4.93
2022-09-27T21:06:27.777Z,4.00
2022-09-27T21:08:55.112Z,4.13
2022-09-27T21:11:22.683Z,4.80
2022-09-27T21:13:50.788Z,4.25
2022-09-27T21:16:27.066Z,3.78
2022-09-27T21:18:56.226Z,4.00
2022-09-27T21:21:24.442Z,4.30
2022-09-27T21:23:57.161Z,3.45
2022-09-27T21:26:25.909Z,3.90
2022-09-27T21:28:57.514Z,3.22
2022-09-27T21:31:27.170Z,2.83
2022-09-27T21:33:56.570Z,3.05
2022-09-27T21:36:24.271Z,2.92
2022-09-27T21:38:51.301Z,2.95
2022-09-27T21:41:18.551Z,2.80
2022-09-27T21:43:47.098Z,2.92
2022-09-27T21:46:19.298Z,2.80
2022-09-27T21:48:48.330Z,2.72
2022-09-27T21:51:27.275Z,2.50
2022-09-27T21:53:55.102Z,2.40
2022-09-27T21:56:23.481Z,2.85
2022-09-27T21:58:50.544Z,3.30
2022-09-27T22:01:21.595Z,2.63
2022-09-27T22:03:51.039Z,2.60
2022-09-27T22:06:20.368Z,2.50
2022-09-27T22:08:48.024Z,2.60
2022-09-27T22:11:18.918Z,2.60
2022-09-27T22:13:45.966Z,2.70
2022-09-27T22:16:15.088Z,2.50
2022-09-27T22:18:52.551Z,2.78
2022-09-27T22:21:26.282Z,2.78
2022-09-27T22:23:57.860Z,2.90
2022-09-27T22:26:27.638Z,2.90
2022-09-27T22:28:54.824Z,2.78
2022-09-27T22:31:22.449Z,2.97
2022-09-27T22:34:00.701Z,2.75
2022-09-27T22:36:28.178Z,2.80
2022-09-27T22:38:55.127Z,2.40
2022-09-27T22:41:21.995Z,2.60
2022-09-27T22:43:48.822Z,2.58
2022-09-27T22:46:15.740Z,2.83
2022-09-27T22:48:42.795Z,2.88
2022-09-27T22:51:09.798Z,3.00
2022-09-27T22:53:37.205Z,3.10
2022-09-27T22:56:19.206Z,3.35
2022-09-27T22:58:47.159Z,3.50
2022-09-27T23:01:15.127Z,3.72
2022-09-27T23:03:42.098Z,3.80
2022-09-27T23:06:09.108Z,4.13
2022-09-27T23:08:36.673Z,3.80
2022-09-27T23:11:08.696Z,4.10
2022-09-27T23:13:38.532Z,4.25
2022-09-27T23:16:08.203Z,3.97
2022-09-27T23:18:35.207Z,4.55
2022-09-27T23:21:04.077Z,4.40
2022-09-27T23:23:31.499Z,3.95
2022-09-27T23:26:00.793Z,4.00
2022-09-27T23:28:28.996Z,4.00
2022-09-27T23:30:55.955Z,4.20
2022-09-27T23:33:22.960Z,3.88
2022-09-27T23:35:49.727Z,3.72
2022-09-27T23:38:16.610Z,4.20
2022-09-27T23:40:43.396Z,3.65
2022-09-27T23:43:10.042Z,3.70
2022-09-27T23:45:36.874Z,3.33
2022-09-27T23:48:03.614Z,4.10
2022-09-27T23:50:30.327Z,3.80
2022-09-27T23:52:56.929Z,5.75
2022-09-27T23:55:23.728Z,4.10
2022-09-27T23:57:51.037Z,3.55
